Ocracoke, NC (27960)

2:50 AM EDT on July 27, 2016 (GMT -0400)
Sunset Dr | | Change Station

Elev 16 ft 35.11 °N, 75.97 °W | Updated 1 minute ago

Clear
Clear
82.4 °F
Feels Like 92 °F
N
1.2
Wind Variable Wind from NNW

Today
High -- | Low -- °F
--% Chance of Precip.
Yesterday
High -- | Low -- °F
Precip. -- in
Pressure 29.96 in
Visibility 10.0 miles
Clouds Clear
Heat Index 92 °F
Dew Point 77 °F
Humidity 86%
Rainfall Not available.
Snow Depth Not available.
6:09 AM 8:10 PM
Last Quarter, 46% visible
METAR KHSE 270551Z AUTO 25008KT 10SM CLR 28/26 A2996 RMK AO2 SLP144 T02780256 10283 20278 58002 TSNO
Pressure 29.96 in
Visibility 10.0 miles
Clouds Clear
Heat Index 92 °F
Dew Point 77 °F
Humidity 86%
Rainfall Not available.
Snow Depth Not available.
6:09 AM 8:10 PM
Last Quarter, 46% visible
METAR KHSE 270551Z AUTO 25008KT 10SM CLR 28/26 A2996 RMK AO2 SLP144 T02780256 10283 20278 58002 TSNO

10-Day Weather Forecast

Almanac

Astronomy

Jul. 27, 2016 Rise Set
Actual Time
Civil Twilight
Nautical Twilight
Astronomical Twilight
Moon
Length of Visible Light
Length of Day
Tomorrow will be .
, % of the Moon is Illuminated

Today's Extremes

State Highs State Lows

Community

WunderPhotos

Upload Photos

1,927,818 photos uploaded!

WunderBlog® & News

Nearby

Air Quality

  Air Quality AQ Index Pollutant
Not available.

Snow Depth

Station Depth Elevation

Earthquake Activity

City Distance Mag. Time & Date
Minimum magnitude displayed is 2.5.

Coastal Water Temperatures

Place Temperature

Stations

Nearby Weather Stations

Station Location Temp. Windchill Dew Point Humidity Wind Precip. Elev Updated Type
                   

Watches & Warnings

There are currently no watches in effect.